Cape Broyle, Canada
Current Conditions -  °F | °C
As of 7:00 PM on Tuesday 21 Oct 2014 (Local Time) from CYYT Reporting Station
Few Clouds Few Clouds  
Wind Chill: 41°   Ceiling: Unl
Heat Index: 46°   Visibility: 15mi
Dew Point: 37°   Wind: 13mph
Humidity: 71%   Direction: 280°W
Pressure: 30.15"   Gusts: 20mph
Location:  47.08°N, 52.95°W
Report Text: CYYT 212100Z 28011G17KT 15SM FEW032 08/03 A3015 RMK SC2 SLP213
Loading
Personal Weather Stations






























Interactive Weather Map
Tropical Storm Tracking
New forecast layout! Learn more

10-Day Weather Forecast

Advertisements
Track Severe Weather on mobile